Time;durP1;ratioP1;P1;durP2;ratioP2;P2;SDS_P1;SDS_P2;PMS_P1;PMS_P2;Temp;Humidity;BMP_temperature;BMP_pressure;BME280_temperature;BME280_humidity;BME280_pressure;Samples;Min_cycle;Max_cycle;Signal;HPM_P1;HPM_P2
2023/06/07 00:01:33;;;;;;;19.25;7.25;;;;;;;14.77;75.70;101912.16;4937911;29;20098;-82
2023/06/07 00:03:59;;;;;;;14.38;6.40;;;;;;;14.68;76.09;101910.09;4967055;28;20129;-83
2023/06/07 00:06:25;;;;;;;11.75;6.78;;;;;;;14.65;75.77;101902.13;4972885;28;20089;-83
2023/06/07 00:08:50;;;;;;;16.70;7.07;;;;;;;14.67;75.29;101905.59;4955259;28;20038;-84
2023/06/07 00:11:16;;;;;;;16.25;6.82;;;;;;;14.61;75.61;101904.19;4971648;28;20073;-82
2023/06/07 00:13:41;;;;;;;17.70;7.07;;;;;;;14.62;75.59;101911.41;4971988;28;20031;-83
2023/06/07 00:16:07;;;;;;;10.90;6.15;;;;;;;14.59;75.34;101903.41;4959880;28;20065;-83
2023/06/07 00:18:32;;;;;;;12.73;6.05;;;;;;;14.64;75.55;101912.19;4971005;28;20093;-83
2023/06/07 00:20:58;;;;;;;12.38;6.70;;;;;;;14.60;75.86;101913.41;4971799;28;20475;-83
2023/06/07 00:23:26;;;;;;;16.77;6.35;;;;;;;14.46;75.92;101900.66;4954072;28;20493;-85
2023/06/07 00:25:51;;;;;;;12.23;6.63;;;;;;;14.50;76.26;101910.47;4953952;28;20514;-82
2023/06/07 00:28:17;;;;;;;12.80;6.97;;;;;;;14.49;76.23;101908.69;4954644;28;20537;-85
2023/06/07 00:30:42;;;;;;;11.18;6.63;;;;;;;14.49;76.11;101910.53;4970710;28;20038;-84
2023/06/07 00:33:08;;;;;;;16.52;6.80;;;;;;;14.49;75.28;101914.16;4940727;29;20043;-83
2023/06/07 00:35:33;;;;;;;12.45;6.40;;;;;;;14.48;75.82;101908.81;4967901;28;20126;-82
2023/06/07 00:37:59;;;;;;;15.93;7.80;;;;;;;14.47;75.14;101907.91;4984856;28;20038;-84
2023/06/07 00:40:24;;;;;;;13.85;7.03;;;;;;;14.42;75.87;101904.63;4965237;28;20107;-84
2023/06/07 00:42:50;;;;;;;14.50;6.90;;;;;;;14.42;76.07;101904.63;4969864;28;20121;-83
2023/06/07 00:45:16;;;;;;;14.85;6.97;;;;;;;14.37;76.23;101905.94;4970844;28;20027;-84
2023/06/07 00:47:42;;;;;;;16.15;7.15;;;;;;;14.33;76.67;101907.13;4965752;28;20027;-84
2023/06/07 00:50:08;;;;;;;14.95;6.93;;;;;;;14.30;76.33;101902.75;4947763;28;20031;-85
2023/06/07 00:52:35;;;;;;;17.67;6.60;;;;;;;14.28;76.06;101908.34;4955144;28;20495;-83
2023/06/07 00:55:02;;;;;;;14.55;6.93;;;;;;;14.28;76.21;101902.00;4939892;28;20073;-84
2023/06/07 00:57:33;;;;;;;12.80;6.43;;;;;;;14.25;76.11;101904.94;4951581;28;20526;-83
2023/06/07 01:00:00;;;;;;;13.23;6.82;;;;;;;14.20;76.63;101904.38;4942558;28;20043;-84
2023/06/07 01:02:26;;;;;;;12.63;6.28;;;;;;;14.15;76.49;101898.38;4967132;28;20035;-83
2023/06/07 01:04:52;;;;;;;12.73;6.45;;;;;;;14.18;76.64;101901.75;4952640;28;20310;-84
2023/06/07 01:07:17;;;;;;;14.38;6.97;;;;;;;14.21;76.19;101903.41;4950986;28;20114;-84
2023/06/07 01:09:43;;;;;;;15.05;7.30;;;;;;;14.17;76.56;101897.25;4961643;28;20050;-84
2023/06/07 01:12:13;;;;;;;14.13;6.75;;;;;;;14.12;76.82;101898.56;4951862;28;20562;-83
2023/06/07 01:14:39;;;;;;;16.88;7.25;;;;;;;14.13;76.81;101911.25;4962823;28;20042;-83
2023/06/07 01:17:06;;;;;;;13.70;6.30;;;;;;;14.07;76.53;101893.41;4970433;28;20411;-83
2023/06/07 01:19:34;;;;;;;11.13;6.50;;;;;;;14.10;76.50;101904.16;4950908;28;20023;-84
2023/06/07 01:22:05;;;;;;;14.65;6.32;;;;;;;14.16;75.84;101906.44;4945930;23;20039;-72
2023/06/07 01:24:31;;;;;;;13.88;7.00;;;;;;;14.11;76.16;101896.81;4979450;23;20217;-83
2023/06/07 01:26:57;;;;;;;16.27;7.65;;;;;;;13.98;77.38;101883.13;4965715;28;20039;-83
2023/06/07 01:29:25;;;;;;;15.02;7.10;;;;;;;13.92;77.03;101881.69;4983998;28;20039;-84
2023/06/07 01:31:53;;;;;;;15.77;7.15;;;;;;;13.90;77.66;101893.75;4968340;28;20132;-84
2023/06/07 01:34:20;;;;;;;15.45;7.50;;;;;;;13.88;77.49;101895.69;4967812;28;20031;-84
2023/06/07 01:36:48;;;;;;;18.48;6.90;;;;;;;13.78;77.78;101888.13;4983943;28;20038;-83
2023/06/07 01:39:16;;;;;;;15.27;7.18;;;;;;;13.76;77.98;101887.38;4967265;28;20074;-84
2023/06/07 01:41:43;;;;;;;16.75;7.32;;;;;;;13.77;78.13;101888.25;4950136;28;20417;-84
2023/06/07 01:44:09;;;;;;;13.02;7.40;;;;;;;13.79;77.55;101880.78;4967347;28;20035;-84
2023/06/07 01:46:34;;;;;;;17.63;7.07;;;;;;;13.74;77.99;101886.59;4967638;28;20106;-84
2023/06/07 01:49:01;;;;;;;20.05;7.72;;;;;;;13.71;77.67;101886.81;4967551;28;20039;-84
2023/06/07 01:51:27;;;;;;;12.63;7.13;;;;;;;13.66;78.06;101888.09;4967477;28;20035;-84
2023/06/07 01:53:53;;;;;;;18.60;7.53;;;;;;;13.58;78.78;101893.22;4967174;28;20085;-83
2023/06/07 01:56:27;;;;;;;12.40;6.40;;;;;;;13.51;78.44;101890.03;4967728;28;20118;-84
2023/06/07 01:59:10;;;;;;;14.10;7.03;;;;;;;13.50;78.43;101877.34;4968130;28;20102;-84
2023/06/07 02:01:49;;;;;;;15.40;8.23;;;;;;;13.47;78.71;101872.06;4968526;28;20093;-84
2023/06/07 02:04:20;;;;;;;16.67;7.93;;;;;;;13.43;79.49;101874.16;4964002;28;20038;-84
2023/06/07 02:06:51;;;;;;;15.88;7.53;;;;;;;13.43;78.89;101881.44;4967581;28;20521;-84
2023/06/07 02:09:20;;;;;;;13.50;7.15;;;;;;;13.40;79.28;101879.81;4963458;28;20058;-84
2023/06/07 02:11:46;;;;;;;16.73;7.25;;;;;;;13.41;79.64;101875.22;4962807;28;20544;-85
2023/06/07 02:14:12;;;;;;;16.23;8.10;;;;;;;13.36;79.92;101880.13;4974679;28;20134;-83
2023/06/07 02:16:40;;;;;;;16.90;8.00;;;;;;;13.31;80.40;101876.84;4963882;28;20054;-83
2023/06/07 02:19:09;;;;;;;12.32;7.10;;;;;;;13.30;79.15;101878.69;4966817;28;20166;-84
2023/06/07 02:21:48;;;;;;;20.10;7.43;;;;;;;13.36;79.77;101882.88;4981546;28;20073;-84
2023/06/07 02:24:13;;;;;;;13.52;8.15;;;;;;;13.28;79.79;101875.16;4947077;29;20516;-84
2023/06/07 02:26:40;;;;;;;19.58;7.65;;;;;;;13.22;80.51;101872.88;4958634;28;20051;-83
2023/06/07 02:29:05;;;;;;;20.70;7.60;;;;;;;13.20;80.59;101883.00;4963479;28;20035;-84
2023/06/07 02:31:31;;;;;;;13.93;8.00;;;;;;;13.18;80.47;101891.28;4947182;29;20035;-84
2023/06/07 02:33:56;;;;;;;18.40;7.32;;;;;;;13.18;79.70;101884.94;4947250;29;20039;-83
2023/06/07 02:36:22;;;;;;;14.90;8.02;;;;;;;13.13;80.41;101881.66;4949634;29;20035;-84
2023/06/07 02:38:48;;;;;;;19.65;7.40;;;;;;;13.11;80.54;101878.16;4963551;28;20125;-84
2023/06/07 02:41:15;;;;;;;14.02;7.50;;;;;;;13.13;79.81;101884.38;4945642;29;20118;-83
2023/06/07 02:43:40;;;;;;;12.95;8.00;;;;;;;13.11;80.55;101886.34;4948302;28;20051;-84
2023/06/07 02:46:06;;;;;;;17.35;8.45;;;;;;;13.09;80.23;101875.50;4963722;28;20035;-84
2023/06/07 02:48:32;;;;;;;14.50;8.20;;;;;;;13.11;80.08;101876.28;4963128;28;20058;-84
2023/06/07 02:50:58;;;;;;;16.75;8.32;;;;;;;13.10;80.62;101882.72;4963734;28;20035;-83
2023/06/07 02:53:24;;;;;;;14.23;7.75;;;;;;;13.05;80.10;101879.41;4947235;29;20034;-84
2023/06/07 02:55:50;;;;;;;15.18;8.18;;;;;;;13.08;80.42;101876.47;4962889;28;20043;-84
2023/06/07 02:58:15;;;;;;;19.55;8.30;;;;;;;12.99;80.54;101879.81;4947108;28;20230;-83
2023/06/07 03:00:41;;;;;;;18.25;9.30;;;;;;;12.95;80.63;101873.69;4948527;29;20455;-84
2023/06/07 03:03:10;;;;;;;15.10;7.68;;;;;;;12.95;81.20;101881.88;4944028;29;20062;-83
2023/06/07 03:05:41;;;;;;;18.40;7.78;;;;;;;12.95;81.54;101881.88;4962650;28;20047;-84
2023/06/07 03:08:10;;;;;;;17.45;8.05;;;;;;;12.93;82.01;101885.69;4963206;28;20086;-83
2023/06/07 03:10:36;;;;;;;15.77;8.45;;;;;;;12.91;82.46;101893.09;4946351;29;20131;-84
2023/06/07 03:13:03;;;;;;;19.27;8.05;;;;;;;12.83;82.25;101885.44;4947002;28;20463;-84
2023/06/07 03:15:29;;;;;;;16.85;7.57;;;;;;;12.77;81.76;101877.63;4946993;29;20110;-84
2023/06/07 03:17:54;;;;;;;15.95;7.07;;;;;;;12.78;82.05;101887.59;4946928;29;20490;-83
2023/06/07 03:20:21;;;;;;;17.25;8.48;;;;;;;12.74;81.78;101881.44;4947796;29;20031;-84
2023/06/07 03:22:49;;;;;;;17.00;7.63;;;;;;;12.72;82.18;101887.97;4964950;28;20027;-84
2023/06/07 03:25:15;;;;;;;14.60;8.00;;;;;;;12.72;81.82;101882.50;4965494;28;20050;-83
2023/06/07 03:27:41;;;;;;;16.42;8.05;;;;;;;12.68;82.68;101887.31;4965543;28;20490;-84
2023/06/07 03:30:32;;;;;;;17.85;7.88;;;;;;;12.71;81.93;101884.34;4950686;28;20039;-84
2023/06/07 03:32:58;;;;;;;15.10;7.80;;;;;;;12.80;81.12;101892.94;4949017;29;20417;-84
2023/06/07 03:35:24;;;;;;;13.00;7.53;;;;;;;12.83;82.42;101896.34;4951065;29;20031;-84
2023/06/07 03:37:50;;;;;;;18.40;8.27;;;;;;;12.82;81.99;101897.31;4966415;28;20390;-83
2023/06/07 03:40:21;;;;;;;15.82;8.02;;;;;;;12.70;82.05;101892.66;4962866;28;20045;-84
2023/06/07 03:42:46;;;;;;;17.08;7.18;;;;;;;12.68;82.26;101883.66;4962088;28;20399;-84
2023/06/07 03:45:12;;;;;;;17.50;7.43;;;;;;;12.60;83.00;101886.91;4966530;28;20027;-84
2023/06/07 03:47:38;;;;;;;12.40;7.28;;;;;;;12.59;82.83;101896.09;4965064;28;20109;-84
2023/06/07 03:50:05;;;;;;;18.27;7.90;;;;;;;12.54;82.88;101891.88;4952170;28;20035;-84
2023/06/07 03:52:33;;;;;;;15.38;8.10;;;;;;;12.49;83.41;101892.16;4949935;29;20061;-84
2023/06/07 03:54:59;;;;;;;20.63;7.63;;;;;;;12.49;83.44;101895.78;4949249;28;20055;-83
2023/06/07 03:57:26;;;;;;;16.23;8.10;;;;;;;12.45;83.80;101890.59;4949281;28;20031;-85
2023/06/07 03:59:51;;;;;;;12.80;6.82;;;;;;;12.47;83.40;101897.75;4950296;28;20078;-84
2023/06/07 04:02:17;;;;;;;16.17;7.07;;;;;;;12.44;84.14;101895.19;4933219;29;20122;-84
2023/06/07 04:04:42;;;;;;;18.65;7.70;;;;;;;12.38;84.16;101886.53;4949350;29;20027;-84
2023/06/07 04:07:08;;;;;;;20.98;7.57;;;;;;;12.38;84.45;101892.00;4949848;28;20049;-83
2023/06/07 04:09:34;;;;;;;16.85;8.27;;;;;;;12.36;84.13;101893.94;4948883;28;20115;-84
2023/06/07 04:12:01;;;;;;;15.82;8.35;;;;;;;12.39;84.56;101904.66;4932385;29;20066;-83
2023/06/07 04:14:27;;;;;;;15.50;8.15;;;;;;;12.41;84.59;101895.41;4933638;29;20563;-84
2023/06/07 04:16:53;;;;;;;16.67;7.80;;;;;;;12.45;83.17;101894.25;4951263;28;20046;-83
2023/06/07 04:19:19;;;;;;;15.13;8.10;;;;;;;12.48;83.61;101890.41;4949414;29;20081;-84
2023/06/07 04:21:45;;;;;;;16.08;7.97;;;;;;;12.51;84.10;101896.56;4965758;28;20063;-84
2023/06/07 04:24:12;;;;;;;18.17;7.47;;;;;;;12.49;83.22;101886.72;4965547;28;20085;-84
2023/06/07 04:26:37;;;;;;;16.50;7.85;;;;;;;12.48;83.38;101893.16;4948125;29;20134;-84
2023/06/07 04:29:05;;;;;;;17.30;7.85;;;;;;;12.51;83.71;101898.44;4933110;29;20050;-83
2023/06/07 04:31:34;;;;;;;16.73;7.18;;;;;;;12.50;83.31;101892.09;4961534;28;20043;-83
2023/06/07 04:34:02;;;;;;;14.75;7.65;;;;;;;12.55;82.57;101890.94;4959876;28;20043;-83
2023/06/07 04:36:30;;;;;;;17.27;7.55;;;;;;;12.70;83.04;101899.00;4961846;28;20040;-83
2023/06/07 04:39:00;;;;;;;14.93;7.28;;;;;;;12.72;82.87;101893.44;4948788;28;20446;-84
2023/06/07 04:41:33;;;;;;;13.48;6.38;;;;;;;12.76;82.19;101893.13;4944211;29;20039;-84
2023/06/07 04:44:08;;;;;;;16.13;7.15;;;;;;;12.85;82.08;101896.25;4930492;29;20078;-83
2023/06/07 04:46:40;;;;;;;20.00;7.32;;;;;;;12.88;82.23;101902.38;4965117;28;20051;-83
2023/06/07 04:49:11;;;;;;;16.30;6.80;;;;;;;12.94;82.39;101914.75;4946904;28;20449;-84
2023/06/07 04:51:38;;;;;;;12.35;6.95;;;;;;;12.94;82.00;101912.03;4948825;28;20038;-84
2023/06/07 04:54:04;;;;;;;12.98;7.10;;;;;;;13.03;81.61;101905.97;4932391;29;20550;-83
2023/06/07 04:56:35;;;;;;;15.80;7.03;;;;;;;12.99;81.41;101898.94;4964828;28;20045;-83
2023/06/07 04:59:03;;;;;;;16.85;7.97;;;;;;;13.01;81.80;101897.88;4961412;28;20079;-84
2023/06/07 05:01:33;;;;;;;13.23;6.75;;;;;;;13.09;80.50;101901.94;4950346;28;20034;-84
2023/06/07 05:04:02;;;;;;;19.80;7.20;;;;;;;13.07;81.46;101895.72;4964862;28;20490;-84
2023/06/07 05:06:37;;;;;;;18.20;7.70;;;;;;;13.09;80.65;101899.22;4929900;29;20562;-83
2023/06/07 05:09:05;;;;;;;14.50;7.38;;;;;;;12.98;80.56;101897.19;4929295;29;20466;-83
2023/06/07 05:11:30;;;;;;;19.88;7.68;;;;;;;13.05;80.95;101897.66;4947269;28;20094;-84
2023/06/07 05:13:56;;;;;;;16.27;7.20;;;;;;;12.96;81.11;101902.78;4963811;28;20035;-83
2023/06/07 05:16:24;;;;;;;11.52;6.85;;;;;;;12.96;81.01;101899.13;4948180;28;20383;-84
2023/06/07 05:18:50;;;;;;;16.48;7.03;;;;;;;13.09;80.30;101907.41;4948110;29;20027;-84
2023/06/07 05:21:17;;;;;;;17.85;7.25;;;;;;;13.07;81.23;101910.25;4959136;28;20380;-83
2023/06/07 05:23:44;;;;;;;11.88;6.63;;;;;;;13.01;81.51;101903.34;4947257;29;20081;-84
2023/06/07 05:26:10;;;;;;;16.05;6.85;;;;;;;13.03;80.89;101920.50;4944122;29;20491;-84
2023/06/07 05:28:35;;;;;;;19.90;7.57;;;;;;;13.06;80.97;101916.72;4945245;29;20050;-84
2023/06/07 05:31:01;;;;;;;12.15;7.10;;;;;;;13.20;81.71;101915.78;4948507;29;20537;-83
2023/06/07 05:33:28;;;;;;;16.45;6.80;;;;;;;13.28;80.06;101917.03;4947344;28;20063;-84
2023/06/07 05:35:55;;;;;;;16.02;6.85;;;;;;;13.33;79.43;101913.13;4949162;28;20558;-83
2023/06/07 05:38:20;;;;;;;17.08;8.10;;;;;;;13.28;80.18;101902.50;4948284;28;20082;-84
2023/06/07 05:40:47;;;;;;;16.23;6.55;;;;;;;13.27;79.98;101914.44;4946556;28;20410;-83
2023/06/07 05:43:12;;;;;;;13.60;6.47;;;;;;;13.28;80.29;101916.16;4954018;28;20065;-84
2023/06/07 05:45:40;;;;;;;15.90;6.43;;;;;;;13.26;79.95;101929.94;4940254;28;20031;-83
2023/06/07 05:48:06;;;;;;;18.70;7.10;;;;;;;13.20;79.59;101922.13;4966253;28;20118;-84
2023/06/07 05:50:33;;;;;;;15.95;7.57;;;;;;;13.22;80.22;101920.19;4945375;28;20031;-84
2023/06/07 05:52:59;;;;;;;15.95;6.95;;;;;;;13.36;79.58;101923.88;4949031;28;20042;-84
2023/06/07 05:55:25;;;;;;;14.05;7.03;;;;;;;13.37;79.18;101926.50;4947972;28;20476;-83
2023/06/07 05:57:52;;;;;;;15.65;7.25;;;;;;;13.40;79.28;101930.88;4932614;29;20568;-84
2023/06/07 06:00:18;;;;;;;14.10;6.80;;;;;;;13.43;79.63;101926.09;4949063;29;20483;-83
2023/06/07 06:02:46;;;;;;;16.02;7.30;;;;;;;13.47;78.92;101922.16;4949532;28;20034;-84
2023/06/07 06:05:13;;;;;;;15.60;7.63;;;;;;;13.56;78.80;101933.44;4958555;28;20031;-83
2023/06/07 06:07:39;;;;;;;16.73;6.40;;;;;;;13.59;77.97;101923.19;4929009;29;20482;-83
2023/06/07 06:10:05;;;;;;;15.82;7.13;;;;;;;13.55;77.84;101928.97;4960657;28;20042;-83
2023/06/07 06:12:31;;;;;;;18.70;7.13;;;;;;;13.57;78.70;101949.78;4948016;29;20041;-85
2023/06/07 06:14:56;;;;;;;19.33;7.22;;;;;;;13.62;78.97;101944.00;4957647;28;20043;-84
2023/06/07 06:17:22;;;;;;;16.67;7.10;;;;;;;13.73;77.78;101935.94;4963087;28;20453;-83
2023/06/07 06:19:48;;;;;;;14.18;7.47;;;;;;;13.86;78.07;101931.38;4964319;28;20074;-84
2023/06/07 06:22:13;;;;;;;16.65;6.88;;;;;;;13.96;77.56;101935.22;4963817;28;20494;-83
2023/06/07 06:24:39;;;;;;;12.85;6.35;;;;;;;13.99;76.95;101950.56;4960548;28;20162;-83
2023/06/07 06:27:06;;;;;;;14.90;6.35;;;;;;;13.89;76.55;101939.34;4958922;28;20066;-83
2023/06/07 06:29:32;;;;;;;13.10;6.35;;;;;;;13.92;76.01;101944.63;4960663;28;20095;-84
2023/06/07 06:31:57;;;;;;;13.95;6.35;;;;;;;14.10;76.78;101947.06;4962374;28;20047;-84
2023/06/07 06:34:23;;;;;;;15.35;7.18;;;;;;;14.22;76.49;101948.94;4931858;29;20502;-84
2023/06/07 06:36:49;;;;;;;11.25;6.35;;;;;;;14.20;76.01;101939.97;4944392;28;20066;-84
2023/06/07 06:39:14;;;;;;;13.52;6.00;;;;;;;14.35;75.89;101940.75;4944299;29;20126;-84
2023/06/07 06:41:40;;;;;;;14.25;6.70;;;;;;;14.43;75.31;101946.56;4962619;28;20031;-84
2023/06/07 06:44:08;;;;;;;17.98;6.90;;;;;;;14.52;73.91;101957.75;4931455;29;20114;-84
2023/06/07 06:46:34;;;;;;;14.85;7.10;;;;;;;14.67;73.89;101965.88;4948877;29;20121;-84
2023/06/07 06:48:59;;;;;;;17.63;6.78;;;;;;;14.74;73.52;101964.44;4948559;28;20471;-84
2023/06/07 06:51:25;;;;;;;14.50;6.47;;;;;;;14.72;72.74;101964.53;4947846;29;20043;-84
2023/06/07 06:53:50;;;;;;;15.65;7.78;;;;;;;14.79;74.75;101965.88;4959992;28;20066;-83
2023/06/07 06:56:15;;;;;;;16.52;6.85;;;;;;;14.82;73.06;101970.22;4954089;28;20042;-84
2023/06/07 06:58:43;;;;;;;14.05;6.63;;;;;;;14.83;73.41;101962.88;4950327;29;20066;-84
2023/06/07 07:01:13;;;;;;;15.05;6.43;;;;;;;14.89;74.05;101957.84;4951533;29;20039;-84
2023/06/07 07:03:40;;;;;;;17.55;6.70;;;;;;;14.97;73.09;101966.41;4963515;28;20040;-83
2023/06/07 07:06:07;;;;;;;10.88;5.97;;;;;;;14.95;73.20;101962.88;4941884;28;20039;-84
2023/06/07 07:08:34;;;;;;;12.52;6.57;;;;;;;15.02;72.69;101961.44;4950689;29;20051;-83
2023/06/07 07:10:59;;;;;;;13.35;6.18;;;;;;;15.10;72.59;101965.47;4951241;28;20449;-84
2023/06/07 07:13:25;;;;;;;13.65;5.90;;;;;;;15.05;72.44;101972.16;4951696;28;20089;-84
2023/06/07 07:15:50;;;;;;;15.40;5.68;;;;;;;15.22;72.17;101976.41;4962667;28;20097;-84
2023/06/07 07:18:15;;;;;;;14.38;6.90;;;;;;;15.41;71.58;101975.94;4951330;28;20035;-83
2023/06/07 07:20:41;;;;;;;13.15;6.28;;;;;;;15.42;71.15;101993.25;4966776;28;20169;-83
2023/06/07 07:23:06;;;;;;;14.32;6.32;;;;;;;15.48;70.78;101981.81;4950231;29;20145;-84
2023/06/07 07:25:32;;;;;;;17.30;6.47;;;;;;;15.74;70.94;101977.16;4966288;28;20407;-83
2023/06/07 07:27:57;;;;;;;15.82;6.57;;;;;;;15.94;70.80;101975.59;4933966;29;20129;-84
2023/06/07 07:30:22;;;;;;;16.75;7.60;;;;;;;16.02;69.15;101976.78;4951005;29;20027;-84
2023/06/07 07:32:48;;;;;;;13.75;6.15;;;;;;;16.06;69.15;101977.41;4946608;29;20506;-83
2023/06/07 07:35:13;;;;;;;13.05;6.10;;;;;;;16.39;68.94;101967.53;4963377;28;20031;-84
2023/06/07 07:37:39;;;;;;;15.20;6.93;;;;;;;16.49;67.64;101974.91;4950252;29;20045;-84
2023/06/07 07:40:08;;;;;;;14.25;6.25;;;;;;;16.46;67.88;101980.66;4947900;29;20058;-83
2023/06/07 07:42:34;;;;;;;22.08;6.35;;;;;;;16.34;68.06;101981.63;4956867;28;20105;-85
2023/06/07 07:45:00;;;;;;;13.93;6.70;;;;;;;16.34;69.62;101965.16;4966604;28;20035;-83
2023/06/07 07:47:25;;;;;;;19.35;7.65;;;;;;;16.50;68.05;101984.03;4947716;29;20440;-84
2023/06/07 07:49:51;;;;;;;16.33;6.47;;;;;;;16.38;68.98;101974.91;4950824;29;20042;-84
2023/06/07 07:52:17;;;;;;;15.82;6.00;;;;;;;16.44;68.27;101979.03;4951543;28;20105;-84
2023/06/07 07:54:43;;;;;;;15.05;6.40;;;;;;;16.43;67.23;101980.91;4951053;28;20034;-84
2023/06/07 07:57:08;;;;;;;13.20;5.78;;;;;;;16.38;67.06;101977.66;4964291;28;20050;-83
2023/06/07 07:59:34;;;;;;;12.07;6.22;;;;;;;16.45;67.73;101987.13;4962395;28;20110;-83
2023/06/07 08:01:59;;;;;;;16.15;6.80;;;;;;;16.55;66.53;101979.03;4966253;28;20399;-85
2023/06/07 08:04:25;;;;;;;14.38;7.05;;;;;;;16.64;65.61;101985.69;4966237;28;20058;-83
2023/06/07 08:06:50;;;;;;;17.35;6.90;;;;;;;16.89;68.18;101984.63;4962849;28;20074;-83
2023/06/07 08:09:15;;;;;;;22.67;6.57;;;;;;;17.00;66.52;102002.00;4938530;29;20042;-84
2023/06/07 08:11:41;;;;;;;15.43;5.82;;;;;;;17.04;66.17;101989.75;4948976;29;20043;-84
2023/06/07 08:14:06;;;;;;;14.98;6.90;;;;;;;17.13;64.37;101979.00;4964668;28;20031;-83
2023/06/07 08:16:32;;;;;;;12.63;6.70;;;;;;;17.71;65.46;101976.88;4951164;29;20035;-85
2023/06/07 08:18:58;;;;;;;13.85;6.22;;;;;;;18.32;61.13;101980.78;4933507;29;20035;-83
2023/06/07 08:21:24;;;;;;;13.02;6.75;;;;;;;18.50;62.93;101971.91;4965827;28;20481;-84
2023/06/07 08:23:52;;;;;;;18.75;7.18;;;;;;;18.39;59.96;101972.84;4949929;29;20117;-83
2023/06/07 08:26:18;;;;;;;13.07;5.88;;;;;;;18.84;61.44;101970.72;4962162;28;20054;-84
2023/06/07 08:28:44;;;;;;;15.90;6.45;;;;;;;19.01;59.25;101974.69;4949257;29;20031;-84
2023/06/07 08:31:10;;;;;;;11.30;6.40;;;;;;;19.33;59.14;101982.81;4950777;29;20054;-84
2023/06/07 08:33:36;;;;;;;13.73;6.53;;;;;;;19.96;59.20;101979.78;4949583;28;20169;-83
2023/06/07 08:36:02;;;;;;;15.00;5.93;;;;;;;20.72;57.88;101973.47;4949633;28;20031;-84
2023/06/07 08:38:28;;;;;;;17.70;6.55;;;;;;;21.14;54.54;101963.69;4949533;28;20057;-85
2023/06/07 08:40:58;;;;;;;13.50;6.47;;;;;;;21.13;54.80;101972.16;4948230;29;20050;-84
2023/06/07 08:43:25;;;;;;;19.10;7.40;;;;;;;20.81;52.91;101969.78;4949134;29;20328;-83
2023/06/07 08:45:51;;;;;;;12.38;6.60;;;;;;;20.67;56.38;101971.13;4933397;29;20063;-84
2023/06/07 08:48:17;;;;;;;16.52;6.63;;;;;;;21.04;56.61;101956.47;4961848;28;20442;-84
2023/06/07 08:50:49;;;;;;;14.52;7.28;;;;;;;21.75;55.27;101964.09;4941971;29;20402;-83
2023/06/07 08:53:23;;;;;;;13.95;6.50;;;;;;;22.03;53.16;101964.88;4949036;28;20043;-84
2023/06/07 08:55:48;;;;;;;11.70;6.90;;;;;;;21.85;50.36;101960.22;4961587;28;20131;-84
2023/06/07 08:58:15;;;;;;;14.63;5.97;;;;;;;21.81;52.87;101969.00;4949805;28;20530;-83
2023/06/07 09:00:40;;;;;;;12.90;6.93;;;;;;;21.76;52.76;101960.28;4948831;29;20085;-84
2023/06/07 09:03:06;;;;;;;11.38;6.50;;;;;;;21.76;52.23;101963.91;4949860;28;20062;-83
2023/06/07 09:05:32;;;;;;;14.90;6.70;;;;;;;21.80;53.29;101962.59;4949098;29;20038;-84
2023/06/07 09:07:57;;;;;;;16.52;7.43;;;;;;;22.03;49.88;101967.66;4965609;28;20047;-83
2023/06/07 09:10:23;;;;;;;15.70;7.70;;;;;;;21.54;50.39;101970.78;4948632;29;20027;-83
2023/06/07 09:12:49;;;;;;;12.27;7.00;;;;;;;21.48;51.75;101968.63;4948989;28;20039;-84
2023/06/07 09:15:19;;;;;;;20.20;8.00;;;;;;;21.46;52.14;101975.38;4964356;28;20434;-83
2023/06/07 09:17:55;;;;;;;17.08;6.63;;;;;;;21.67;53.54;101966.75;4949569;28;20126;-84
2023/06/07 09:20:23;;;;;;;25.92;7.68;;;;;;;21.77;51.05;101973.09;4949696;28;20491;-83
2023/06/07 09:23:00;;;;;;;16.05;6.25;;;;;;;21.97;51.33;101965.53;4949449;28;20721;-84
2023/06/07 09:25:27;;;;;;;11.77;6.53;;;;;;;21.55;51.74;101979.97;4947844;29;20462;-83
2023/06/07 09:27:54;;;;;;;18.63;7.57;;;;;;;21.43;54.69;101971.00;4947644;29;20477;-84
2023/06/07 09:30:19;;;;;;;17.17;7.47;;;;;;;21.59;51.56;101970.28;4949894;28;20039;-83
2023/06/07 09:32:45;;;;;;;13.77;7.00;;;;;;;21.76;53.46;101972.22;4963612;28;20026;-84
2023/06/07 09:35:15;;;;;;;16.08;6.95;;;;;;;22.20;53.14;101977.91;4949830;28;20042;-84
2023/06/07 09:37:43;;;;;;;19.67;6.95;;;;;;;21.98;49.98;101972.81;4964226;28;20374;-84
2023/06/07 09:40:08;;;;;;;16.85;6.82;;;;;;;22.02;51.71;101966.78;4948124;29;20106;-84
2023/06/07 09:42:34;;;;;;;12.80;6.63;;;;;;;22.12;50.76;101963.97;4948320;28;20142;-84
2023/06/07 09:45:12;;;;;;;14.63;7.25;;;;;;;21.95;50.76;101965.66;4949756;29;20509;-83
2023/06/07 09:47:40;;;;;;;15.23;7.20;;;;;;;21.59;52.68;101960.13;4947198;29;20046;-84
2023/06/07 09:50:10;;;;;;;12.93;7.13;;;;;;;21.60;53.58;101956.31;4960102;28;20156;-83
2023/06/07 09:52:35;;;;;;;16.98;6.93;;;;;;;21.61;52.54;101949.75;4949067;28;20042;-84
2023/06/07 09:55:06;;;;;;;18.23;7.28;;;;;;;21.65;52.21;101964.16;4948667;29;20061;-84
2023/06/07 09:57:37;;;;;;;12.88;6.82;;;;;;;21.73;52.12;101953.19;4955450;28;20050;-84
2023/06/07 10:00:17;;;;;;;11.18;6.25;;;;;;;21.68;52.17;101949.09;4963394;28;20123;-83
2023/06/07 10:02:44;;;;;;;14.98;7.78;;;;;;;21.59;51.90;101956.44;4948882;28;20053;-84
2023/06/07 10:05:12;;;;;;;13.20;6.43;;;;;;;21.73;54.46;101967.03;4947897;29;20045;-84
2023/06/07 10:07:50;;;;;;;20.67;7.05;;;;;;;21.75;52.94;101962.19;4947101;29;20030;-83
2023/06/07 10:10:19;;;;;;;16.33;7.10;;;;;;;21.43;52.61;101965.44;4949088;28;20038;-84
2023/06/07 10:12:46;;;;;;;14.73;6.72;;;;;;;21.09;52.37;101954.97;4946370;29;20031;-84
2023/06/07 10:15:18;;;;;;;13.65;7.05;;;;;;;20.97;52.92;101955.31;4962772;28;20074;-83
2023/06/07 10:17:50;;;;;;;14.65;6.88;;;;;;;20.67;52.99;101948.16;4953464;28;20043;-83
2023/06/07 10:20:25;;;;;;;13.35;6.47;;;;;;;20.52;54.86;101950.53;4949493;29;20380;-83
2023/06/07 10:22:57;;;;;;;15.35;7.03;;;;;;;20.37;54.61;101950.06;4947580;29;20406;-83
2023/06/07 10:25:26;;;;;;;21.75;7.13;;;;;;;20.83;56.89;101953.91;4946760;29;20047;-83
2023/06/07 10:28:08;;;;;;;16.80;6.93;;;;;;;20.98;53.36;101965.34;4946875;28;20035;-83
2023/06/07 10:30:37;;;;;;;24.23;8.05;;;;;;;21.00;54.04;101958.66;4947338;29;20047;-83
2023/06/07 10:33:04;;;;;;;13.35;5.70;;;;;;;21.42;55.22;101952.66;4951054;28;20047;-84
2023/06/07 10:35:31;;;;;;;12.77;6.95;;;;;;;21.40;52.11;101951.91;4953128;28;20027;-84
2023/06/07 10:37:57;;;;;;;19.90;6.53;;;;;;;21.49;54.07;101958.41;4935383;29;20039;-83
2023/06/07 10:40:25;;;;;;;15.95;7.25;;;;;;;21.43;52.39;101959.91;4951632;29;20043;-83
2023/06/07 10:42:52;;;;;;;14.85;6.97;;;;;;;21.25;52.08;101964.50;4934317;29;20543;-84
2023/06/07 10:45:19;;;;;;;18.55;7.30;;;;;;;21.42;53.22;101958.19;4967666;28;20136;-83
2023/06/07 10:47:47;;;;;;;16.58;7.45;;;;;;;21.79;53.51;101952.53;4950466;28;20039;-83
2023/06/07 10:50:28;;;;;;;17.40;7.72;;;;;;;22.14;52.96;101959.13;4952782;28;20134;-83
2023/06/07 10:53:01;;;;;;;19.65;8.05;;;;;;;22.21;53.89;101951.06;4952835;28;20123;-84
2023/06/07 10:55:31;;;;;;;18.92;7.75;;;;;;;22.22;51.80;101944.47;4952558;28;20434;-83
2023/06/07 10:58:00;;;;;;;16.05;7.45;;;;;;;22.28;51.99;101938.28;4951869;28;20450;-83
2023/06/07 11:00:33;;;;;;;13.68;7.15;;;;;;;22.33;52.74;101944.19;4952769;28;20027;-83
2023/06/07 11:03:05;;;;;;;16.15;7.97;;;;;;;22.28;51.47;101944.69;4950645;28;20043;-83
2023/06/07 11:05:52;;;;;;;15.30;7.53;;;;;;;22.16;51.88;101940.44;4950956;28;20039;-84
2023/06/07 11:08:27;;;;;;;16.70;7.47;;;;;;;21.84;51.52;101933.53;4950799;28;20159;-84
2023/06/07 11:11:00;;;;;;;12.57;7.18;;;;;;;21.68;52.01;101935.25;4949885;29;20031;-83
2023/06/07 11:13:38;;;;;;;12.95;7.00;;;;;;;21.65;53.15;101936.47;4951690;28;20055;-83
2023/06/07 11:16:22;;;;;;;15.00;6.63;;;;;;;21.99;54.44;101942.16;4952067;28;20094;-84
2023/06/07 11:19:04;;;;;;;16.65;7.38;;;;;;;21.95;52.68;101937.97;4951760;28;20086;-84